• Join FlightAware (Why Join?)
  • Login
  • US Flag 
08:49PM EDT


 

Airport Tracker/Info


-or-


 

Live Flight TrackerFlight Track Log ✈ N680AN ✈ 19-Apr-2013 ✈ KDEN - KMIA

Flight Track Log - Related Links

Times and Time Zones

All times are in EDT time to prevent confusion due to time zone crossing. See the N680AN flight status page for this flight to view local times or setup timezone preferences in your user account.

Time Position Orientation Groundspeed Altitude Reporting Facility
EDT Latitude Longitude Course Direction KTS MPH feet Rate Location/Type
02:00AM 39.8833 -104.5667 107° East 213 245 7,500  Level Denver TRACON
02:01AM 39.8833 -104.4667 90° East 288 331 9,000 2,100 Climbing Denver TRACON
02:02AM 39.8503 -104.4050 125° Southeast 300 345 10,900 2,160 Climbing Denver Center
02:03AM 39.6570 -104.0208 113° Southeast  Level FlightAware Approximate
02:03AM 39.8044 -104.2936 118° Southeast 361 415 12,600  Level Denver Center
02:04AM 39.6038 -103.8614 113° Southeast  Level FlightAware Approximate
02:04AM 39.7528 -104.1733 119° Southeast 384 442 15,500  Level Denver Center
02:05AM 39.5566 -103.7064 107° East  Level FlightAware Approximate
02:05AM 39.6986 -104.0475 119° Southeast 399 459 18,000  Level Denver Center
02:06AM 39.6414 -103.9133 119° Southeast 421 484 20,300 2,220 Climbing Denver Center
02:07AM 39.5831 -103.7714 118° Southeast 445 512 22,500 2,040 Climbing Denver Center
02:08AM 39.5456 -103.6181 108° East 448 516 24,500 1,920 Climbing Denver Center
02:09AM 39.5031 -103.4572 109° East 465 535 26,400 1,740 Climbing Denver Center
02:10AM 39.4594 -103.2914 109° East 479 551 28,100 1,560 Climbing Denver Center
02:11AM 39.4150 -103.1233 109° East 489 563 29,600 1,740 Climbing Denver Center
02:12AM 39.3692 -102.9528 109° East 497 572 31,700 1,920 Climbing Denver Center
02:13AM 39.3236 -102.7842 109° East 493 567 33,500 1,560 Climbing Denver Center
02:14AM 39.2792 -102.6264 110° East 495 570 34,900 1,320 Climbing Denver Center
02:15AM 39.2347 -102.4667 110° East 494 568 36,200 1,200 Climbing Denver Center
02:16AM 39.1503 -102.2981 123° Southeast 504 580 37,400 1,020 Climbing Denver Center
02:17AM 39.0661 -102.1631 129° Southeast 504 580 38,300 780 Climbing Denver Center
02:18AM 38.9817 -102.0289 129° Southeast 504 580 39,000 300 Climbing Denver Center
02:19AM 38.8825 -101.8719 129° Southeast 507 583 39,000  Level Denver Center
02:20AM 38.7972 -101.7394 130° Southeast 506 582 39,000  Level Denver Center
02:21AM 38.7117 -101.6044 129° Southeast 509 586 39,000  Level Denver Center
02:22AM 38.6122 -101.4503 130° Southeast 504 580 39,000  Level Denver Center
02:23AM 38.5267 -101.3186 130° Southeast 503 579 39,000  Level Denver Center
02:24AM 38.4425 -101.1872 129° Southeast 500 575 39,000  Level Denver Center
02:25AM 38.3569 -101.0561 130° Southeast 501 577 39,000  Level Denver Center
02:26AM 38.2578 -100.9058 130° Southeast 497 572 39,000  Level Denver Center
02:27AM 38.1731 -100.7764 130° Southeast 495 570 39,000  Level Denver Center
02:28AM 38.0856 -100.6456 130° Southeast 503 579 39,000  Level Denver Center
02:29AM 37.9969 -100.5106 130° Southeast 507 583 39,000  Level Kansas City Center
02:30AM 37.9078 -100.3761 130° Southeast 514 592 39,000  Level Kansas City Center
02:31AM 37.8183 -100.2433 130° Southeast 515 593 39,000  Level Kansas City Center
02:32AM 37.7289 -100.1103 130° Southeast 516 594 39,000  Level Kansas City Center
02:33AM 37.6264 -99.9531 129° Southeast 517 595 39,000  Level Kansas City Center
02:34AM 37.5364 -99.8206 131° Southeast 516 594 39,000  Level Kansas City Center
02:35AM 37.4467 -99.6897 131° Southeast 515 593 39,000  Level Kansas City Center
02:36AM 37.3581 -99.5567 130° Southeast 517 595 39,000  Level Kansas City Center
02:37AM 37.2694 -99.4275 131° Southeast 514 592 39,000  Level Kansas City Center
02:38AM 37.1753 -99.2878 130° Southeast 518 596 39,000  Level Kansas City Center
02:39AM 37.0806 -99.1506 131° Southeast 518 596 39,000  Level Kansas City Center
02:40AM 36.9861 -99.0144 131° Southeast 516 594 39,000  Level Kansas City Center
02:41AM 36.8917 -98.8769 131° Southeast 518 596 39,000  Level Kansas City Center
02:42AM 36.7956 -98.7406 131° Southeast 519 597 39,000  Level Kansas City Center
02:43AM 36.7011 -98.6056 131° Southeast 515 593 39,000  Level Kansas City Center
02:44AM 36.6056 -98.4703 131° Southeast 515 593 39,000  Level Kansas City Center
02:45AM 36.5117 -98.3381 131° Southeast 510 587 39,000  Level Kansas City Center
02:46AM 36.4169 -98.2036 131° Southeast 512 589 39,000  Level Kansas City Center
02:47AM 36.3219 -98.0697 131° Southeast 514 592 39,000  Level Kansas City Center
02:48AM 36.2314 -97.9417 131° Southeast 512 589 39,000  Level Kansas City Center
02:49AM 36.1364 -97.8117 132° Southeast 510 587 39,000  Level Kansas City Center
02:50AM 36.0428 -97.6800 131° Southeast 510 587 39,000  Level Kansas City Center
02:51AM 35.9486 -97.5483 131° Southeast 511 588 39,000  Level Kansas City Center
02:52AM 35.8528 -97.4164 132° Southeast 512 589 39,000  Level Kansas City Center
02:53AM 35.7567 -97.2839 132° Southeast 514 592 39,000  Level Kansas City Center
02:54AM 35.6594 -97.1517 132° Southeast 515 593 39,000  Level Kansas City Center
02:55AM 35.5619 -97.0181 132° Southeast 518 596 39,000  Level Kansas City Center
02:56AM 35.4447 -96.8631 133° Southeast 517 595 39,000  Level Fort Worth Center
02:57AM 35.3397 -96.7214 132° Southeast 517 595 39,000  Level Fort Worth Center
02:58AM 35.2431 -96.5925 133° Southeast 517 595 39,000  Level Fort Worth Center
02:59AM 35.1461 -96.4639 133° Southeast 517 595 39,000  Level Fort Worth Center
03:00AM 35.0492 -96.3383 133° Southeast 517 595 39,000  Level Fort Worth Center
03:01AM 34.9542 -96.2103 132° Southeast 517 595 39,000  Level Fort Worth Center
03:02AM 34.8589 -96.0825 132° Southeast 517 595 39,000  Level Fort Worth Center
03:03AM 34.7658 -95.9600 133° Southeast 511 588 39,000  Level Fort Worth Center
03:04AM 34.6706 -95.8381 134° Southeast 506 582 39,000  Level Fort Worth Center
03:05AM 34.5772 -95.7161 133° Southeast 499 574 39,000  Level Fort Worth Center
03:06AM 34.4836 -95.5944 133° Southeast 499 574 39,000  Level Fort Worth Center
03:07AM 34.4028 -95.4881 133° Southeast 489 563 39,000  Level Fort Worth Center
03:08AM 34.3111 -95.3694 133° Southeast 489 563 39,000  Level Fort Worth Center
03:09AM 34.2217 -95.2508 132° Southeast 484 557 39,000  Level Fort Worth Center
03:10AM 34.1297 -95.1328 133° Southeast 484 557 39,000  Level Fort Worth Center
03:11AM 34.0378 -95.0150 133° Southeast 484 557 39,000  Level Fort Worth Center
03:12AM 33.9478 -94.8972 133° Southeast 484 557 39,000  Level Fort Worth Center
03:13AM 33.8536 -94.7797 134° Southeast 489 563 39,000  Level Fort Worth Center
03:14AM 33.7614 -94.6653 134° Southeast 489 563 39,000  Level Fort Worth Center
03:15AM 33.6692 -94.5483 133° Southeast 484 557 39,000  Level Fort Worth Center
03:16AM 33.5786 -94.4292 132° Southeast 484 557 39,000  Level Fort Worth Center
03:17AM 33.4839 -94.3128 134° Southeast 484 557 39,000  Level Fort Worth Center
03:18AM 33.3892 -94.1967 134° Southeast 484 557 39,000  Level Fort Worth Center
03:19AM 33.2833 -94.0614 133° Southeast 494 568 39,000  Level Fort Worth Center
03:20AM 33.1842 -93.9411 135° Southeast 501 577 39,000  Level Fort Worth Center
03:21AM 33.0889 -93.8183 133° Southeast 501 577 39,000  Level Fort Worth Center
03:22AM 32.9956 -93.6983 133° Southeast 501 577 39,000  Level Fort Worth Center
03:23AM 32.9003 -93.5786 133° Southeast 496 571 39,000  Level Fort Worth Center
03:24AM 32.8047 -93.4614 134° Southeast 496 571 39,000  Level Fort Worth Center
03:26AM 32.6222 -93.2414 135° Southeast 500 575 39,000  Level Houston Center
03:27AM 32.5244 -93.1239 135° Southeast 499 574 39,000  Level Houston Center
03:28AM 32.4272 -93.0058 134° Southeast 497 572 39,000  Level Houston Center
03:29AM 32.3297 -92.8889 135° Southeast 497 572 39,000  Level Houston Center
03:30AM 32.2314 -92.7706 134° Southeast 502 578 39,000  Level Houston Center
03:31AM 32.1308 -92.6497 134° Southeast 502 578 39,000  Level Houston Center
03:32AM 32.0319 -92.5333 135° Southeast 502 578 39,000  Level Houston Center
03:33AM 31.9339 -92.4142 134° Southeast 504 580 39,000  Level Houston Center
03:34AM 31.8367 -92.2956 134° Southeast 504 580 39,000  Level Houston Center
03:35AM 31.7517 -92.1561 126° Southeast 519 597 39,000  Level Houston Center
03:36AM 31.6772 -92.0056 120° Southeast 531 611 39,000  Level Houston Center
03:37AM 31.6058 -91.8539 119° Southeast 529 609 39,000  Level Houston Center
03:38AM 31.5339 -91.7028 119° Southeast 528 608 39,000  Level Houston Center
03:39AM 31.4617 -91.5528 119° Southeast 528 608 39,000  Level Houston Center
03:40AM 31.3894 -91.4031 119° Southeast 527 606 39,000  Level Houston Center
03:41AM 31.3172 -91.2531 119° Southeast 528 608 39,000  Level Houston Center
03:42AM 31.2444 -91.1042 120° Southeast 525 604 39,000  Level Houston Center
03:43AM 31.1750 -90.9561 119° Southeast 522 601 39,000  Level Houston Center
03:44AM 31.1022 -90.8103 120° Southeast 521 600 39,000  Level Houston Center
03:45AM 31.0325 -90.6628 119° Southeast 519 597 39,000  Level Houston Center
03:46AM 30.9611 -90.5178 120° Southeast 518 596 39,000  Level Houston Center
03:47AM 30.8889 -90.3725 120° Southeast 519 597 39,000  Level Houston Center
03:48AM 30.8175 -90.2269 120° Southeast 518 596 39,000  Level Houston Center
03:49AM 30.7456 -90.0822 120° Southeast 517 595 39,000  Level Houston Center
03:50AM 30.6722 -89.9369 120° Southeast 518 596 39,000  Level Houston Center
03:51AM 30.6000 -89.7917 120° Southeast 515 593 39,000  Level Houston Center
03:52AM 30.5411 -89.6736 120° Southeast 519 597 39,000  Level Houston Center
03:53AM 30.4661 -89.5267 121° Southeast 518 596 39,000  Level Houston Center
03:54AM 30.3925 -89.3808 120° Southeast 520 598 39,000  Level Houston Center
03:55AM 30.3189 -89.2356 120° Southeast 521 600 39,000  Level Houston Center
03:56AM 30.2442 -89.0900 121° Southeast 525 604 39,000  Level Houston Center
03:57AM 30.1706 -88.9472 121° Southeast 518 596 39,000  Level Houston Center
03:58AM 30.0969 -88.8039 121° Southeast 518 596 39,000  Level Houston Center
03:59AM 30.0111 -88.6386 121° Southeast 521 600 39,000  Level Houston Center
04:00AM 29.9361 -88.4933 121° Southeast 528 608 39,000  Level Houston Center
04:01AM 29.8597 -88.3497 121° Southeast 529 609 39,000  Level Houston Center
04:02AM 29.7833 -88.2042 121° Southeast 533 613 39,000  Level Houston Center
04:03AM 29.7075 -88.0594 121° Southeast 531 611 39,000  Level Houston Center
04:04AM 29.6306 -87.9136 121° Southeast 536 617 39,000  Level Houston Center
04:05AM 29.5547 -87.7692 121° Southeast 532 612 39,000  Level Houston Center
04:06AM 29.4786 -87.6261 121° Southeast 528 608 39,000  Level Houston Center
04:07AM 29.4031 -87.4819 121° Southeast 528 608 39,000  Level Houston Center
04:08AM 29.3331 -87.3508 121° Southeast 531 611 39,000  Level Houston Center
04:08AM 29.2900 -87.2661 120° Southeast 523 602 39,000  Level Jacksonville Center
04:09AM 29.2153 -87.1247 121° Southeast 528 608 39,000  Level Jacksonville Center
04:10AM 29.1367 -86.9811 122° Southeast 528 608 39,000  Level Jacksonville Center
04:11AM 29.0594 -86.8403 122° Southeast 528 608 39,000  Level Jacksonville Center
04:12AM 28.9825 -86.6947 121° Southeast 528 608 39,000  Level Jacksonville Center
04:13AM 28.9033 -86.5519 122° Southeast 533 613 39,000  Level Jacksonville Center
04:14AM 28.8258 -86.4069 121° Southeast 533 613 39,000  Level Jacksonville Center
04:15AM 28.7464 -86.2597 122° Southeast 533 613 39,000  Level Jacksonville Center
04:16AM 28.6667 -86.1150 122° Southeast 533 613 39,000  Level Jacksonville Center
04:17AM 28.5867 -85.9706 122° Southeast 533 613 39,000  Level Jacksonville Center
04:18AM 28.5047 -85.8239 122° Southeast 538 619 39,000  Level Jacksonville Center
04:19AM 28.4264 -85.6800 122° Southeast 545 627 39,000  Level Jacksonville Center
04:20AM 28.3458 -85.5411 123° Southeast 545 627 39,000  Level Jacksonville Center
04:21AM 28.2675 -85.3931 121° Southeast 540 621 39,000  Level Jacksonville Center
04:24AM 28.0869 -85.0642 122° Southeast 528 608 39,000  Level Miami Center
04:25AM 28.0097 -84.9175 121° Southeast 528 608 39,000  Level Miami Center
04:26AM 27.9244 -84.7661 122° Southeast 544 626 39,000  Level Miami Center
04:27AM 27.8528 -84.6250 120° Southeast 549 632 39,000  Level Miami Center
04:28AM 27.7794 -84.4794 120° Southeast 535 616 39,000  Level Miami Center
04:29AM 27.7078 -84.3364 119° Southeast 530 610 39,000  Level Miami Center
04:30AM 27.6317 -84.1933 121° Southeast 530 610 39,000  Level Miami Center
04:31AM 27.5594 -84.0531 120° Southeast 530 610 39,000  Level Miami Center
04:32AM 27.4894 -83.9106 119° Southeast 530 610 39,000  Level Miami Center
04:33AM 27.4169 -83.7683 120° Southeast 530 610 39,000  Level Miami Center
04:34AM 27.3444 -83.6286 120° Southeast 530 610 39,000  Level Miami Center
04:35AM 27.2656 -83.4861 122° Southeast 530 610 39,000  Level Miami Center
04:36AM 27.1925 -83.3444 120° Southeast 530 610 39,000  Level Miami Center
04:37AM 27.1172 -83.2072 122° Southeast 530 610 39,000  Level Miami Center
04:38AM 27.0442 -83.0658 120° Southeast 530 610 39,000  Level Miami Center
04:39AM 26.9708 -82.9269 121° Southeast 530 610 39,000  Level Miami Center
04:40AM 26.9008 -82.8022 122° Southeast 525 604 39,000  Level Miami Center
04:41AM 26.8269 -82.6658 121° Southeast 525 604 39,000 -960 Level Miami Center
04:42AM 26.7511 -82.5250 121° Southeast 525 604 37,200 -2,040 Descending Miami Center
04:43AM 26.6772 -82.3914 122° Southeast 525 604 35,000 -2,220 Descending Miami Center
04:44AM 26.6069 -82.2581 120° Southeast 513 590 32,800 -2,220 Descending Miami Center
04:45AM 26.5325 -82.1247 122° Southeast 513 590 30,600 -2,100 Descending Miami Center
04:46AM 26.4639 -81.9986 121° Southeast 503 579 28,700 -2,100 Descending Miami Center
04:47AM 26.3953 -81.8706 121° Southeast 492 566 26,500 -2,220 Descending Miami Center
04:48AM 26.3286 -81.7494 122° Southeast 479 551 24,300 -2,220 Descending Miami Center
04:49AM 26.2614 -81.6311 122° Southeast 466 536 22,100 -2,220 Descending Miami Center
04:50AM 26.1983 -81.5175 122° Southeast 445 512 19,900 -2,100 Descending Miami Center
04:51AM 26.1392 -81.4064 121° Southeast 434 499 17,800 -2,160 Descending Miami Center
04:52AM 26.0797 -81.2978 121° Southeast 420 483 15,600 -2,340 Descending Miami Center
04:53AM 26.0203 -81.1983 124° Southeast 394 453 13,400 -2,340 Descending Miami Center
04:53AM 25.9803 -81.1300 123° Southeast 381 438 11,900 -2,040 Descending Miami Center
04:54AM 25.9667 -81.0972 115° Southeast 397 457 11,200 -1,560 Descending Miami Center
04:54AM 25.9372 -81.0361 118° Southeast 359 413 10,500 -1,020 Descending Miami Center
04:55AM 25.9258 -80.9964 108° East 376 433 10,200 -360 Descending Miami Center
04:55AM 25.9022 -80.9447 117° Southeast 306 352 10,200 -540 Level Miami Center
04:56AM 25.8925 -80.9122 108° East 334 384 9,700 -1,380 Descending Miami Center
04:56AM 25.8708 -80.8653 117° Southeast 278 320 8,800 -1,560 Descending Miami Center
04:57AM 25.8614 -80.8303 107° East 303 349 8,200 -1,200 Descending Miami Center
04:57AM 25.8378 -80.7833 119° Southeast 284 327 7,600 -1,260 Descending Miami Center
04:58AM 25.8281 -80.7531 110° East 283 326 7,000 -1,320 Descending Miami Center
04:58AM 25.8022 -80.7039 120° Southeast 275 316 6,300 -1,020 Descending Miami Center
04:59AM 25.7967 -80.6758 102° East 277 319 6,000 -720 Descending Miami Center
04:59AM 25.7831 -80.6292 108° East 251 289 5,600 -720 Descending Miami Center
05:00AM 25.7881 -80.6042 77° East 259 298 5,300 -1,200 Descending Miami Center
05:00AM 25.7872 -80.5556 91° East 231 266 4,400 -1,500 Descending Miami Center
05:01AM 25.7900 -80.5233 85° East 243 280 3,900 -1,140 Descending Miami Center
05:02AM 25.7914 -80.4750 88° East 205 236 3,000 -1,020 Descending Miami Center
05:03AM 25.7947 -80.4219 86° East 155 178 2,100 -900 Descending Miami Center